Sugarhill, Georgia
Current Conditions -  °F | °C
As of 4:45 PM on Sunday 21 Dec 2014 (Local Time) from KLZU Reporting Station
Haze Haze  
Wind Chill: 45°   Ceiling: 1400
Heat Index: 48°   Visibility: 6mi
Dew Point: 37°   Wind: 7mph
Humidity: 66%   Direction: 90°E
Pressure: 30.11"   Gusts: NA
Location:  34.1183°N, 84.0234°W
Report Text: KLZU 212145Z 09006KT 6SM BR BKN014 09/03 A3011 RMK ATIS P RWY 07 JW
Loading
Personal Weather Stations






























Interactive Weather Map New forecast layout! Learn more

10-Day Weather Forecast

Advertisements
Track Severe Weather on mobile